sensor_id;sensor_type;location;lat;lon;timestamp;pressure;altitude;pressure_sealevel;temperature;humidity
72959;BME280;60008;50.826;6.896;2023-02-18T00:00:09;101770.47;;;10.91;100.00
72959;BME280;60008;50.826;6.896;2023-02-18T00:02:55;101772.97;;;10.93;100.00
72959;BME280;60008;50.826;6.896;2023-02-18T00:05:40;101782.03;;;10.90;100.00
72959;BME280;60008;50.826;6.896;2023-02-18T00:08:25;101776.88;;;10.89;100.00
72959;BME280;60008;50.826;6.896;2023-02-18T00:11:11;101767.13;;;10.89;100.00
72959;BME280;60008;50.826;6.896;2023-02-18T00:13:59;101767.97;;;10.90;100.00
72959;BME280;60008;50.826;6.896;2023-02-18T00:16:45;101770.72;;;10.88;100.00
72959;BME280;60008;50.826;6.896;2023-02-18T00:19:30;101768.34;;;10.85;100.00
72959;BME280;60008;50.826;6.896;2023-02-18T00:22:15;101765.16;;;10.82;100.00
72959;BME280;60008;50.826;6.896;2023-02-18T00:25:00;101758.00;;;10.82;100.00
72959;BME280;60008;50.826;6.896;2023-02-18T00:27:45;101759.00;;;10.81;100.00
72959;BME280;60008;50.826;6.896;2023-02-18T00:30:30;101756.47;;;10.80;100.00
72959;BME280;60008;50.826;6.896;2023-02-18T00:33:15;101759.28;;;10.78;100.00
72959;BME280;60008;50.826;6.896;2023-02-18T00:36:03;101769.72;;;10.80;100.00
72959;BME280;60008;50.826;6.896;2023-02-18T00:38:51;101769.63;;;10.81;100.00
72959;BME280;60008;50.826;6.896;2023-02-18T00:41:37;101752.97;;;10.79;100.00
72959;BME280;60008;50.826;6.896;2023-02-18T00:44:22;101733.88;;;10.75;100.00
72959;BME280;60008;50.826;6.896;2023-02-18T00:47:07;101734.41;;;10.79;100.00
72959;BME280;60008;50.826;6.896;2023-02-18T00:49:52;101736.38;;;10.77;100.00
72959;BME280;60008;50.826;6.896;2023-02-18T00:52:37;101729.41;;;10.76;100.00
72959;BME280;60008;50.826;6.896;2023-02-18T00:55:22;101717.69;;;10.79;100.00
72959;BME280;60008;50.826;6.896;2023-02-18T00:58:07;101731.22;;;10.75;100.00
72959;BME280;60008;50.826;6.896;2023-02-18T01:00:53;101728.00;;;10.72;100.00
72959;BME280;60008;50.826;6.896;2023-02-18T01:03:40;101726.75;;;10.76;100.00
72959;BME280;60008;50.826;6.896;2023-02-18T01:06:25;101721.00;;;10.71;100.00
72959;BME280;60008;50.826;6.896;2023-02-18T01:09:10;101717.69;;;10.79;100.00
72959;BME280;60008;50.826;6.896;2023-02-18T01:11:55;101723.81;;;10.79;100.00
72959;BME280;60008;50.826;6.896;2023-02-18T01:14:40;101730.97;;;10.79;100.00
72959;BME280;60008;50.826;6.896;2023-02-18T01:17:25;101719.78;;;10.75;100.00
72959;BME280;60008;50.826;6.896;2023-02-18T01:20:11;101713.50;;;10.76;100.00
72959;BME280;60008;50.826;6.896;2023-02-18T01:22:57;101716.44;;;10.73;100.00
72959;BME280;60008;50.826;6.896;2023-02-18T01:25:42;101717.41;;;10.72;100.00
72959;BME280;60008;50.826;6.896;2023-02-18T01:28:27;101710.28;;;10.72;100.00
72959;BME280;60008;50.826;6.896;2023-02-18T01:31:13;101718.94;;;10.74;100.00
72959;BME280;60008;50.826;6.896;2023-02-18T01:33:58;101709.28;;;10.73;100.00
72959;BME280;60008;50.826;6.896;2023-02-18T01:36:44;101711.94;;;10.73;100.00
72959;BME280;60008;50.826;6.896;2023-02-18T01:39:28;101708.47;;;10.73;100.00
72959;BME280;60008;50.826;6.896;2023-02-18T01:42:19;101696.47;;;10.69;100.00
72959;BME280;60008;50.826;6.896;2023-02-18T01:48:32;101694.22;;;10.64;100.00
72959;BME280;60008;50.826;6.896;2023-02-18T01:51:22;101704.69;;;10.66;100.00
72959;BME280;60008;50.826;6.896;2023-02-18T01:54:13;101694.22;;;10.64;100.00
72959;BME280;60008;50.826;6.896;2023-02-18T01:57:02;101693.66;;;10.61;100.00
72959;BME280;60008;50.826;6.896;2023-02-18T01:59:53;101684.16;;;10.58;100.00
72959;BME280;60008;50.826;6.896;2023-02-18T02:02:43;101685.97;;;10.58;100.00
72959;BME280;60008;50.826;6.896;2023-02-18T02:05:32;101679.41;;;10.52;100.00
72959;BME280;60008;50.826;6.896;2023-02-18T02:08:17;101686.41;;;10.53;100.00
72959;BME280;60008;50.826;6.896;2023-02-18T02:11:37;101683.31;;;10.48;100.00
72959;BME280;60008;50.826;6.896;2023-02-18T02:17:53;101660.16;;;10.50;100.00
72959;BME280;60008;50.826;6.896;2023-02-18T02:24:17;101649.41;;;10.52;100.00
72959;BME280;60008;50.826;6.896;2023-02-18T02:27:14;101653.63;;;10.54;100.00
72959;BME280;60008;50.826;6.896;2023-02-18T02:33:46;101648.31;;;10.54;100.00
72959;BME280;60008;50.826;6.896;2023-02-18T02:37:12;101652.50;;;10.57;100.00
72959;BME280;60008;50.826;6.896;2023-02-18T02:40:10;101647.59;;;10.52;100.00
72959;BME280;60008;50.826;6.896;2023-02-18T02:43:41;101646.91;;;10.50;100.00
72959;BME280;60008;50.826;6.896;2023-02-18T02:46:44;101641.47;;;10.52;100.00
72959;BME280;60008;50.826;6.896;2023-02-18T02:49:52;101644.00;;;10.53;100.00
72959;BME280;60008;50.826;6.896;2023-02-18T02:52:49;101645.53;;;10.56;100.00
72959;BME280;60008;50.826;6.896;2023-02-18T02:55:36;101637.72;;;10.54;100.00
72959;BME280;60008;50.826;6.896;2023-02-18T02:58:21;101630.31;;;10.58;100.00
72959;BME280;60008;50.826;6.896;2023-02-18T03:04:03;101628.34;;;10.60;100.00
72959;BME280;60008;50.826;6.896;2023-02-18T03:16:45;101592.50;;;10.65;100.00
72959;BME280;60008;50.826;6.896;2023-02-18T03:22:24;101585.09;;;10.69;100.00
72959;BME280;60008;50.826;6.896;2023-02-18T03:25:12;101575.63;;;10.66;100.00
72959;BME280;60008;50.826;6.896;2023-02-18T03:28:05;101578.44;;;10.65;100.00
72959;BME280;60008;50.826;6.896;2023-02-18T03:30:57;101570.03;;;10.69;100.00
72959;BME280;60008;50.826;6.896;2023-02-18T03:33:56;101571.00;;;10.68;100.00
72959;BME280;60008;50.826;6.896;2023-02-18T03:36:43;101565.59;;;10.70;100.00
72959;BME280;60008;50.826;6.896;2023-02-18T03:39:31;101554.53;;;10.74;100.00
72959;BME280;60008;50.826;6.896;2023-02-18T03:42:18;101557.88;;;10.76;100.00
72959;BME280;60008;50.826;6.896;2023-02-18T03:45:03;101549.94;;;10.76;100.00
72959;BME280;60008;50.826;6.896;2023-02-18T03:47:48;101555.09;;;10.78;100.00
72959;BME280;60008;50.826;6.896;2023-02-18T03:50:33;101560.25;;;10.80;100.00
72959;BME280;60008;50.826;6.896;2023-02-18T03:53:18;101554.81;;;10.81;100.00
72959;BME280;60008;50.826;6.896;2023-02-18T03:56:04;101553.81;;;10.82;100.00
72959;BME280;60008;50.826;6.896;2023-02-18T03:58:49;101555.50;;;10.83;100.00
72959;BME280;60008;50.826;6.896;2023-02-18T04:01:34;101552.84;;;10.83;100.00
72959;BME280;60008;50.826;6.896;2023-02-18T04:04:19;101549.25;;;10.84;100.00
72959;BME280;60008;50.826;6.896;2023-02-18T04:07:05;101551.91;;;10.84;100.00
72959;BME280;60008;50.826;6.896;2023-02-18T04:09:50;101543.09;;;10.84;100.00
72959;BME280;60008;50.826;6.896;2023-02-18T04:12:35;101545.75;;;10.84;100.00
72959;BME280;60008;50.826;6.896;2023-02-18T04:15:20;101541.28;;;10.84;100.00
72959;BME280;60008;50.826;6.896;2023-02-18T04:18:05;101540.00;;;10.88;100.00
72959;BME280;60008;50.826;6.896;2023-02-18T04:20:51;101528.44;;;10.89;100.00
72959;BME280;60008;50.826;6.896;2023-02-18T04:23:36;101529.41;;;10.88;100.00
72959;BME280;60008;50.826;6.896;2023-02-18T04:26:21;101528.56;;;10.88;100.00
72959;BME280;60008;50.826;6.896;2023-02-18T04:29:06;101517.94;;;10.88;100.00
72959;BME280;60008;50.826;6.896;2023-02-18T04:31:51;101519.75;;;10.87;100.00
72959;BME280;60008;50.826;6.896;2023-02-18T04:34:36;101527.72;;;10.87;100.00
72959;BME280;60008;50.826;6.896;2023-02-18T04:37:22;101524.09;;;10.88;100.00
72959;BME280;60008;50.826;6.896;2023-02-18T04:40:07;101522.28;;;10.89;100.00
72959;BME280;60008;50.826;6.896;2023-02-18T04:42:52;101526.06;;;10.86;100.00
72959;BME280;60008;50.826;6.896;2023-02-18T04:45:37;101529.00;;;10.83;100.00
72959;BME280;60008;50.826;6.896;2023-02-18T04:48:22;101520.34;;;10.81;100.00
72959;BME280;60008;50.826;6.896;2023-02-18T04:51:08;101520.19;;;10.83;100.00
72959;BME280;60008;50.826;6.896;2023-02-18T04:53:52;101508.22;;;10.79;100.00
72959;BME280;60008;50.826;6.896;2023-02-18T04:56:37;101506.53;;;10.77;100.00
72959;BME280;60008;50.826;6.896;2023-02-18T04:59:22;101508.22;;;10.79;100.00
72959;BME280;60008;50.826;6.896;2023-02-18T05:02:07;101506.25;;;10.81;100.00
72959;BME280;60008;50.826;6.896;2023-02-18T05:04:52;101498.13;;;10.82;100.00
72959;BME280;60008;50.826;6.896;2023-02-18T05:07:37;101507.78;;;10.83;100.00
72959;BME280;60008;50.826;6.896;2023-02-18T05:10:22;101498.84;;;10.84;100.00
72959;BME280;60008;50.826;6.896;2023-02-18T05:13:08;101497.84;;;10.85;100.00
72959;BME280;60008;50.826;6.896;2023-02-18T05:15:52;101497.19;;;10.83;100.00
72959;BME280;60008;50.826;6.896;2023-02-18T05:18:38;101493.00;;;10.81;100.00
72959;BME280;60008;50.826;6.896;2023-02-18T05:21:23;101494.53;;;10.83;100.00
72959;BME280;60008;50.826;6.896;2023-02-18T05:24:08;101492.72;;;10.84;100.00
72959;BME280;60008;50.826;6.896;2023-02-18T05:26:53;101489.38;;;10.82;100.00
72959;BME280;60008;50.826;6.896;2023-02-18T05:29:39;101487.81;;;10.79;100.00
72959;BME280;60008;50.826;6.896;2023-02-18T05:32:23;101489.94;;;10.75;100.00
72959;BME280;60008;50.826;6.896;2023-02-18T05:35:09;101486.75;;;10.62;100.00
72959;BME280;60008;50.826;6.896;2023-02-18T05:37:54;101489.13;;;10.56;100.00
72959;BME280;60008;50.826;6.896;2023-02-18T05:40:39;101488.97;;;10.57;100.00
72959;BME280;60008;50.826;6.896;2023-02-18T05:43:25;101488.84;;;10.59;100.00
72959;BME280;60008;50.826;6.896;2023-02-18T05:46:10;101485.22;;;10.60;100.00
72959;BME280;60008;50.826;6.896;2023-02-18T05:48:55;101480.91;;;10.59;100.00
72959;BME280;60008;50.826;6.896;2023-02-18T05:51:40;101482.56;;;10.60;100.00
72959;BME280;60008;50.826;6.896;2023-02-18T05:54:26;101476.16;;;10.62;100.00
72959;BME280;60008;50.826;6.896;2023-02-18T05:57:12;101471.16;;;10.59;100.00
72959;BME280;60008;50.826;6.896;2023-02-18T05:59:58;101473.78;;;10.59;100.00
72959;BME280;60008;50.826;6.896;2023-02-18T06:02:44;101474.47;;;10.61;100.00
72959;BME280;60008;50.826;6.896;2023-02-18T06:05:29;101468.06;;;10.64;100.00
72959;BME280;60008;50.826;6.896;2023-02-18T06:08:14;101463.88;;;10.61;100.00
72959;BME280;60008;50.826;6.896;2023-02-18T06:10:58;101462.06;;;10.62;100.00
72959;BME280;60008;50.826;6.896;2023-02-18T06:13:44;101463.03;;;10.70;100.00
72959;BME280;60008;50.826;6.896;2023-02-18T06:16:29;101448.50;;;10.74;100.00
72959;BME280;60008;50.826;6.896;2023-02-18T06:19:15;101432.84;;;10.81;100.00
72959;BME280;60008;50.826;6.896;2023-02-18T06:22:00;101437.03;;;10.84;100.00
72959;BME280;60008;50.826;6.896;2023-02-18T06:24:45;101427.25;;;10.84;100.00
72959;BME280;60008;50.826;6.896;2023-02-18T06:27:30;101424.72;;;10.92;100.00
72959;BME280;60008;50.826;6.896;2023-02-18T06:30:16;101414.09;;;10.92;100.00
72959;BME280;60008;50.826;6.896;2023-02-18T06:33:01;101424.41;;;10.95;100.00
72959;BME280;60008;50.826;6.896;2023-02-18T06:36:04;101410.72;;;11.00;100.00
72959;BME280;60008;50.826;6.896;2023-02-18T06:38:53;101419.22;;;11.03;100.00
72959;BME280;60008;50.826;6.896;2023-02-18T06:41:41;101407.63;;;11.04;100.00
72959;BME280;60008;50.826;6.896;2023-02-18T06:44:26;101417.94;;;11.07;100.00
72959;BME280;60008;50.826;6.896;2023-02-18T06:47:11;101415.00;;;11.10;100.00
72959;BME280;60008;50.826;6.896;2023-02-18T06:49:55;101419.75;;;11.07;100.00
72959;BME280;60008;50.826;6.896;2023-02-18T06:52:41;101410.94;;;11.06;100.00
72959;BME280;60008;50.826;6.896;2023-02-18T06:55:26;101418.78;;;11.08;100.00
72959;BME280;60008;50.826;6.896;2023-02-18T06:58:11;101415.72;;;11.03;100.00
72959;BME280;60008;50.826;6.896;2023-02-18T07:00:57;101410.03;;;10.98;100.00
72959;BME280;60008;50.826;6.896;2023-02-18T07:03:42;101405.53;;;10.98;100.00
72959;BME280;60008;50.826;6.896;2023-02-18T07:06:27;101396.91;;;10.96;100.00
72959;BME280;60008;50.826;6.896;2023-02-18T07:09:12;101406.84;;;10.94;100.00
72959;BME280;60008;50.826;6.896;2023-02-18T07:11:57;101399.72;;;10.95;100.00
72959;BME280;60008;50.826;6.896;2023-02-18T07:14:42;101409.88;;;10.99;100.00
72959;BME280;60008;50.826;6.896;2023-02-18T07:17:27;101411.97;;;10.96;100.00
72959;BME280;60008;50.826;6.896;2023-02-18T07:20:12;101425.25;;;10.96;100.00
72959;BME280;60008;50.826;6.896;2023-02-18T07:22:57;101430.25;;;10.99;100.00
72959;BME280;60008;50.826;6.896;2023-02-18T07:25:42;101446.03;;;11.00;100.00
72959;BME280;60008;50.826;6.896;2023-02-18T07:28:27;101446.16;;;10.99;100.00
72959;BME280;60008;50.826;6.896;2023-02-18T07:31:12;101446.84;;;11.01;100.00
72959;BME280;60008;50.826;6.896;2023-02-18T07:33:57;101446.31;;;10.97;100.00
72959;BME280;60008;50.826;6.896;2023-02-18T07:36:43;101448.97;;;10.97;100.00
72959;BME280;60008;50.826;6.896;2023-02-18T07:39:27;101454.00;;;11.00;100.00
72959;BME280;60008;50.826;6.896;2023-02-18T07:42:13;101458.06;;;10.95;100.00
72959;BME280;60008;50.826;6.896;2023-02-18T07:44:58;101450.69;;;10.89;100.00
72959;BME280;60008;50.826;6.896;2023-02-18T07:47:43;101452.03;;;10.93;100.00
72959;BME280;60008;50.826;6.896;2023-02-18T07:50:29;101436.25;;;11.01;100.00
72959;BME280;60008;50.826;6.896;2023-02-18T07:53:18;101444.41;;;10.90;100.00
72959;BME280;60008;50.826;6.896;2023-02-18T07:56:04;101447.75;;;10.82;100.00
72959;BME280;60008;50.826;6.896;2023-02-18T07:58:49;101456.53;;;10.46;100.00
72959;BME280;60008;50.826;6.896;2023-02-18T08:01:34;101448.84;;;10.43;100.00
72959;BME280;60008;50.826;6.896;2023-02-18T08:04:19;101467.53;;;10.41;100.00
72959;BME280;60008;50.826;6.896;2023-02-18T08:07:04;101481.38;;;10.35;100.00
72959;BME280;60008;50.826;6.896;2023-02-18T08:09:49;101484.69;;;10.37;100.00
72959;BME280;60008;50.826;6.896;2023-02-18T08:12:35;101482.91;;;10.38;100.00
72959;BME280;60008;50.826;6.896;2023-02-18T08:15:20;101494.88;;;10.42;100.00
72959;BME280;60008;50.826;6.896;2023-02-18T08:18:07;101486.91;;;10.42;100.00
72959;BME280;60008;50.826;6.896;2023-02-18T08:20:52;101515.22;;;10.41;100.00
72959;BME280;60008;50.826;6.896;2023-02-18T08:23:37;101519.44;;;10.34;100.00
72959;BME280;60008;50.826;6.896;2023-02-18T08:26:23;101501.28;;;10.39;100.00
72959;BME280;60008;50.826;6.896;2023-02-18T08:29:08;101518.72;;;10.42;100.00
72959;BME280;60008;50.826;6.896;2023-02-18T08:31:53;101512.44;;;10.43;100.00
72959;BME280;60008;50.826;6.896;2023-02-18T08:34:39;101487.91;;;10.41;100.00
72959;BME280;60008;50.826;6.896;2023-02-18T08:37:24;101501.00;;;10.42;100.00
72959;BME280;60008;50.826;6.896;2023-02-18T08:40:11;101523.06;;;10.43;100.00
72959;BME280;60008;50.826;6.896;2023-02-18T08:42:56;101536.59;;;10.40;100.00
72959;BME280;60008;50.826;6.896;2023-02-18T08:45:42;101529.03;;;10.45;100.00
72959;BME280;60008;50.826;6.896;2023-02-18T08:48:28;101531.84;;;10.43;100.00
72959;BME280;60008;50.826;6.896;2023-02-18T08:51:18;101529.03;;;10.45;100.00
72959;BME280;60008;50.826;6.896;2023-02-18T08:54:03;101538.09;;;10.42;100.00
72959;BME280;60008;50.826;6.896;2023-02-18T08:56:48;101517.75;;;10.43;100.00
72959;BME280;60008;50.826;6.896;2023-02-18T08:59:33;101522.22;;;10.42;100.00
72959;BME280;60008;50.826;6.896;2023-02-18T09:02:18;101522.78;;;10.46;100.00
72959;BME280;60008;50.826;6.896;2023-02-18T09:05:04;101503.38;;;10.45;100.00
72959;BME280;60008;50.826;6.896;2023-02-18T09:07:49;101502.25;;;10.48;100.00
72959;BME280;60008;50.826;6.896;2023-02-18T09:10:34;101496.13;;;10.47;100.00
72959;BME280;60008;50.826;6.896;2023-02-18T09:13:19;101492.06;;;10.53;100.00
72959;BME280;60008;50.826;6.896;2023-02-18T09:16:15;101486.66;;;10.54;100.00
72959;BME280;60008;50.826;6.896;2023-02-18T09:19:01;101496.94;;;10.57;100.00
72959;BME280;60008;50.826;6.896;2023-02-18T09:21:46;101508.09;;;10.61;100.00
72959;BME280;60008;50.826;6.896;2023-02-18T09:24:38;101491.34;;;10.60;100.00
72959;BME280;60008;50.826;6.896;2023-02-18T09:27:23;101486.88;;;10.70;100.00
72959;BME280;60008;50.826;6.896;2023-02-18T09:30:09;101488.81;;;10.68;100.00
72959;BME280;60008;50.826;6.896;2023-02-18T09:32:54;101485.59;;;10.74;100.00
72959;BME280;60008;50.826;6.896;2023-02-18T09:35:40;101486.06;;;10.70;100.00
72959;BME280;60008;50.826;6.896;2023-02-18T09:38:26;101490.09;;;10.64;100.00
72959;BME280;60008;50.826;6.896;2023-02-18T09:41:23;101464.84;;;10.60;100.00
72959;BME280;60008;50.826;6.896;2023-02-18T09:44:20;101467.94;;;10.56;100.00
72959;BME280;60008;50.826;6.896;2023-02-18T09:47:37;101465.56;;;10.62;100.00
72959;BME280;60008;50.826;6.896;2023-02-18T09:50:28;101469.19;;;10.61;100.00
72959;BME280;60008;50.826;6.896;2023-02-18T09:53:14;101446.56;;;10.67;100.00
72959;BME280;60008;50.826;6.896;2023-02-18T09:56:00;101457.00;;;10.68;100.00
72959;BME280;60008;50.826;6.896;2023-02-18T09:58:46;101444.03;;;10.65;100.00
72959;BME280;60008;50.826;6.896;2023-02-18T10:01:33;101457.72;;;10.70;100.00
72959;BME280;60008;50.826;6.896;2023-02-18T10:04:26;101435.38;;;10.73;100.00
72959;BME280;60008;50.826;6.896;2023-02-18T10:07:28;101438.31;;;10.70;100.00
72959;BME280;60008;50.826;6.896;2023-02-18T10:13:13;101446.16;;;10.62;100.00
72959;BME280;60008;50.826;6.896;2023-02-18T10:16:00;101445.31;;;10.61;100.00
72959;BME280;60008;50.826;6.896;2023-02-18T10:18:48;101437.22;;;10.63;100.00
72959;BME280;60008;50.826;6.896;2023-02-18T10:21:34;101444.31;;;10.72;100.00
72959;BME280;60008;50.826;6.896;2023-02-18T10:27:20;101435.78;;;10.78;100.00
72959;BME280;60008;50.826;6.896;2023-02-18T10:33:30;101429.19;;;10.82;100.00
72959;BME280;60008;50.826;6.896;2023-02-18T10:37:25;101419.41;;;10.92;100.00
72959;BME280;60008;50.826;6.896;2023-02-18T10:39:45;101433.38;;;10.85;100.00
72959;BME280;60008;50.826;6.896;2023-02-18T10:45:37;101430.31;;;10.89;100.00
72959;BME280;60008;50.826;6.896;2023-02-18T10:51:33;101438.66;;;10.94;100.00
72959;BME280;60008;50.826;6.896;2023-02-18T10:54:23;101438.78;;;10.93;100.00
72959;BME280;60008;50.826;6.896;2023-02-18T10:57:17;101435.00;;;10.95;100.00
72959;BME280;60008;50.826;6.896;2023-02-18T11:03:15;101441.19;;;10.86;100.00
72959;BME280;60008;50.826;6.896;2023-02-18T11:06:01;101434.38;;;10.74;100.00
72959;BME280;60008;50.826;6.896;2023-02-18T11:08:47;101436.81;;;10.58;100.00
72959;BME280;60008;50.826;6.896;2023-02-18T11:11:36;101448.56;;;10.46;100.00
72959;BME280;60008;50.826;6.896;2023-02-18T11:14:36;101454.44;;;10.40;100.00
72959;BME280;60008;50.826;6.896;2023-02-18T11:17:29;101454.88;;;10.26;100.00
72959;BME280;60008;50.826;6.896;2023-02-18T11:20:36;101477.44;;;10.20;100.00
72959;BME280;60008;50.826;6.896;2023-02-18T11:23:22;101489.44;;;10.14;100.00
72959;BME280;60008;50.826;6.896;2023-02-18T11:26:12;101470.78;;;10.16;100.00
72959;BME280;60008;50.826;6.896;2023-02-18T11:29:01;101470.06;;;10.24;100.00
72959;BME280;60008;50.826;6.896;2023-02-18T11:31:50;101458.06;;;10.29;100.00
72959;BME280;60008;50.826;6.896;2023-02-18T11:34:40;101468.09;;;10.45;100.00
72959;BME280;60008;50.826;6.896;2023-02-18T11:37:27;101465.16;;;10.48;100.00
72959;BME280;60008;50.826;6.896;2023-02-18T11:40:29;101465.72;;;10.51;100.00
72959;BME280;60008;50.826;6.896;2023-02-18T11:43:16;101464.44;;;10.55;100.00
72959;BME280;60008;50.826;6.896;2023-02-18T11:46:19;101466.69;;;10.50;100.00
72959;BME280;60008;50.826;6.896;2023-02-18T11:49:22;101474.50;;;10.42;100.00
72959;BME280;60008;50.826;6.896;2023-02-18T11:52:33;101484.56;;;10.29;100.00
72959;BME280;60008;50.826;6.896;2023-02-18T11:55:21;101477.03;;;10.25;100.00
72959;BME280;60008;50.826;6.896;2023-02-18T11:58:09;101481.91;;;10.29;100.00
72959;BME280;60008;50.826;6.896;2023-02-18T12:00:58;101490.25;;;10.25;100.00
72959;BME280;60008;50.826;6.896;2023-02-18T12:03:50;101484.13;;;10.14;100.00
72959;BME280;60008;50.826;6.896;2023-02-18T12:09:37;101478.25;;;10.01;100.00
72959;BME280;60008;50.826;6.896;2023-02-18T12:12:30;101488.31;;;10.07;100.00
72959;BME280;60008;50.826;6.896;2023-02-18T12:15:21;101486.19;;;10.11;100.00
72959;BME280;60008;50.826;6.896;2023-02-18T12:18:49;101479.81;;;10.23;100.00
72959;BME280;60008;50.826;6.896;2023-02-18T12:22:00;101469.94;;;10.15;100.00
72959;BME280;60008;50.826;6.896;2023-02-18T12:25:19;101478.28;;;10.21;100.00
72959;BME280;60008;50.826;6.896;2023-02-18T12:37:07;101463.50;;;10.28;100.00
72959;BME280;60008;50.826;6.896;2023-02-18T12:43:12;101472.41;;;10.36;100.00
72959;BME280;60008;50.826;6.896;2023-02-18T12:46:25;101458.19;;;10.37;100.00
72959;BME280;60008;50.826;6.896;2023-02-18T13:01:44;101476.59;;;10.39;100.00
72959;BME280;60008;50.826;6.896;2023-02-18T13:04:49;101464.75;;;10.43;100.00
72959;BME280;60008;50.826;6.896;2023-02-18T13:08:00;101466.13;;;10.47;100.00
72959;BME280;60008;50.826;6.896;2023-02-18T13:11:11;101462.50;;;10.48;100.00
72959;BME280;60008;50.826;6.896;2023-02-18T13:14:18;101465.56;;;10.53;100.00
72959;BME280;60008;50.826;6.896;2023-02-18T13:17:07;101463.47;;;10.56;100.00
72959;BME280;60008;50.826;6.896;2023-02-18T13:19:58;101466.41;;;10.53;100.00
72959;BME280;60008;50.826;6.896;2023-02-18T13:22:46;101467.38;;;10.52;100.00
72959;BME280;60008;50.826;6.896;2023-02-18T13:25:37;101463.59;;;10.55;100.00
72959;BME280;60008;50.826;6.896;2023-02-18T13:28:29;101464.72;;;10.62;100.00
72959;BME280;60008;50.826;6.896;2023-02-18T13:34:53;101476.41;;;10.69;100.00
72959;BME280;60008;50.826;6.896;2023-02-18T13:41:19;101463.84;;;10.71;100.00
72959;BME280;60008;50.826;6.896;2023-02-18T13:44:38;101465.53;;;10.72;100.00
72959;BME280;60008;50.826;6.896;2023-02-18T13:47:43;101464.84;;;10.70;100.00
72959;BME280;60008;50.826;6.896;2023-02-18T13:50:31;101460.22;;;10.82;100.00
72959;BME280;60008;50.826;6.896;2023-02-18T13:53:20;101459.38;;;10.81;100.00
72959;BME280;60008;50.826;6.896;2023-02-18T13:56:20;101452.53;;;10.79;100.00
72959;BME280;60008;50.826;6.896;2023-02-18T13:59:09;101459.50;;;10.80;100.00
72959;BME280;60008;50.826;6.896;2023-02-18T14:08:10;101456.72;;;10.81;100.00
72959;BME280;60008;50.826;6.896;2023-02-18T14:22:51;101446.63;;;10.85;100.00
72959;BME280;60008;50.826;6.896;2023-02-18T14:25:38;101446.78;;;10.83;100.00
72959;BME280;60008;50.826;6.896;2023-02-18T14:31:26;101442.47;;;10.82;100.00
72959;BME280;60008;50.826;6.896;2023-02-18T14:40:55;101441.22;;;10.76;100.00
72959;BME280;60008;50.826;6.896;2023-02-18T14:44:02;101435.91;;;10.76;100.00
72959;BME280;60008;50.826;6.896;2023-02-18T14:49:58;101444.69;;;10.87;100.00
72959;BME280;60008;50.826;6.896;2023-02-18T14:52:48;101448.03;;;10.79;100.00
72959;BME280;60008;50.826;6.896;2023-02-18T14:55:37;101433.69;;;10.82;100.00
72959;BME280;60008;50.826;6.896;2023-02-18T14:58:30;101438.16;;;10.71;100.00
72959;BME280;60008;50.826;6.896;2023-02-18T15:01:24;101444.59;;;10.69;100.00
72959;BME280;60008;50.826;6.896;2023-02-18T15:04:13;101451.28;;;10.73;100.00
72959;BME280;60008;50.826;6.896;2023-02-18T15:07:01;101438.16;;;10.71;100.00
72959;BME280;60008;50.826;6.896;2023-02-18T15:09:49;101444.03;;;10.75;100.00
72959;BME280;60008;50.826;6.896;2023-02-18T15:12:36;101442.22;;;10.75;100.00
72959;BME280;60008;50.826;6.896;2023-02-18T15:15:21;101445.84;;;10.74;100.00
72959;BME280;60008;50.826;6.896;2023-02-18T15:18:18;101439.28;;;10.69;100.00
72959;BME280;60008;50.826;6.896;2023-02-18T15:21:06;101446.69;;;10.65;100.00
72959;BME280;60008;50.826;6.896;2023-02-18T15:23:52;101452.84;;;10.66;100.00
72959;BME280;60008;50.826;6.896;2023-02-18T15:26:41;101455.78;;;10.63;100.00
72959;BME280;60008;50.826;6.896;2023-02-18T15:29:31;101456.22;;;10.58;100.00
72959;BME280;60008;50.826;6.896;2023-02-18T15:32:21;101454.53;;;10.57;100.00
72959;BME280;60008;50.826;6.896;2023-02-18T15:35:17;101457.19;;;10.57;100.00
72959;BME280;60008;50.826;6.896;2023-02-18T15:38:03;101458.19;;;10.56;100.00
72959;BME280;60008;50.826;6.896;2023-02-18T15:40:50;101450.50;;;10.53;100.00
72959;BME280;60008;50.826;6.896;2023-02-18T15:43:36;101459.13;;;10.55;100.00
72959;BME280;60008;50.826;6.896;2023-02-18T15:46:21;101459.00;;;10.57;100.00
72959;BME280;60008;50.826;6.896;2023-02-18T15:49:07;101442.56;;;10.53;100.00
72959;BME280;60008;50.826;6.896;2023-02-18T15:51:57;101452.59;;;10.59;100.00
72959;BME280;60008;50.826;6.896;2023-02-18T15:54:42;101442.00;;;10.59;100.00
72959;BME280;60008;50.826;6.896;2023-02-18T15:57:28;101444.06;;;10.56;100.00
72959;BME280;60008;50.826;6.896;2023-02-18T16:00:18;101445.19;;;10.53;100.00
72959;BME280;60008;50.826;6.896;2023-02-18T16:03:25;101457.50;;;10.54;100.00
72959;BME280;60008;50.826;6.896;2023-02-18T16:06:18;101460.94;;;10.55;100.00
72959;BME280;60008;50.826;6.896;2023-02-18T16:11:52;101442.56;;;10.53;100.00
72959;BME280;60008;50.826;6.896;2023-02-18T16:14:46;101448.97;;;10.51;100.00
72959;BME280;60008;50.826;6.896;2023-02-18T16:17:32;101451.63;;;10.51;100.00
72959;BME280;60008;50.826;6.896;2023-02-18T16:20:32;101461.09;;;10.44;100.00
72959;BME280;60008;50.826;6.896;2023-02-18T16:23:25;101461.25;;;10.42;100.00
72959;BME280;60008;50.826;6.896;2023-02-18T16:29:24;101466.00;;;10.39;100.00
72959;BME280;60008;50.826;6.896;2023-02-18T16:32:09;101468.53;;;10.40;100.00